METAR Data
IDs: Format: Raw Decoded Include TAF

Data at: 1257 UTC 26 Feb 2021

CYVR 261200Z 29027G34KT 20SM FEW150 04/02 A2980 RMK AC1 SLP093